createdAt,value
2019-04-11T00:00:37.792Z,1.65
2019-04-11T00:03:05.093Z,1.78
2019-04-11T00:05:31.896Z,1.55
2019-04-11T00:07:59.716Z,1.54
2019-04-11T00:10:27.298Z,1.46
2019-04-11T00:12:54.836Z,1.48
2019-04-11T00:15:21.611Z,1.52
2019-04-11T00:17:48.613Z,1.53
2019-04-11T00:20:15.970Z,1.60
2019-04-11T00:22:43.719Z,1.56
2019-04-11T00:25:11.498Z,1.45
2019-04-11T00:27:39.257Z,1.37
2019-04-11T00:30:08.064Z,1.24
2019-04-11T00:32:35.887Z,1.17
2019-04-11T00:35:03.673Z,1.13
2019-04-11T00:37:30.514Z,1.13
2019-04-11T00:39:57.225Z,0.91
2019-04-11T00:42:24.024Z,1.12
2019-04-11T00:44:51.450Z,0.96
2019-04-11T00:47:18.550Z,0.99
2019-04-11T00:49:46.391Z,0.82
2019-04-11T00:52:14.246Z,0.85
2019-04-11T00:54:41.447Z,0.93
2019-04-11T00:57:08.514Z,1.03
2019-04-11T00:59:35.337Z,1.22
2019-04-11T01:02:03.034Z,1.17
2019-04-11T01:04:29.829Z,1.07
2019-04-11T01:06:56.529Z,0.90
2019-04-11T01:09:24.273Z,0.86
2019-04-11T01:14:26.487Z,0.99
2019-04-11T01:16:54.207Z,1.24
2019-04-11T01:19:21.122Z,1.32
2019-04-11T01:21:48.781Z,1.07
2019-04-11T01:24:15.717Z,0.92
2019-04-11T01:26:43.413Z,1.15
2019-04-11T01:29:11.305Z,1.08
2019-04-11T01:31:38.294Z,0.94
2019-04-11T01:34:05.113Z,0.85
2019-04-11T01:36:31.881Z,0.87
2019-04-11T01:39:00.960Z,0.83
2019-04-11T01:41:28.801Z,0.76
2019-04-11T01:44:00.778Z,0.78
2019-04-11T01:46:24.439Z,0.70
2019-04-11T01:49:06.139Z,0.70
2019-04-11T01:51:33.862Z,0.61
2019-04-11T01:54:01.690Z,0.53
2019-04-11T01:56:29.413Z,0.43
2019-04-11T01:58:57.191Z,0.33
2019-04-11T02:01:47.256Z,0.41
2019-04-11T02:04:23.828Z,0.38
2019-04-11T02:06:51.059Z,0.36
2019-04-11T02:09:19.989Z,0.33
2019-04-11T02:11:47.736Z,0.36
2019-04-11T02:14:16.945Z,0.51
2019-04-11T02:16:43.354Z,0.52
2019-04-11T02:19:10.232Z,0.54
2019-04-11T02:21:37.894Z,0.54
2019-04-11T02:24:20.193Z,0.87
2019-04-11T02:26:59.063Z,0.73
2019-04-11T02:29:25.640Z,0.63
2019-04-11T02:31:52.893Z,0.59
2019-04-11T02:34:21.350Z,0.60
2019-04-11T02:36:49.081Z,0.61
2019-04-11T02:39:19.189Z,0.64
2019-04-11T02:44:32.005Z,0.71
2019-04-11T02:46:48.197Z,0.69
2019-04-11T02:49:10.255Z,0.68
2019-04-11T02:51:38.883Z,0.99
2019-04-11T02:54:07.040Z,0.87
2019-04-11T02:56:36.277Z,1.13
2019-04-11T02:59:05.174Z,0.89
2019-04-11T03:01:33.991Z,0.72
2019-04-11T03:04:01.936Z,0.63
2019-04-11T03:06:31.027Z,0.67
2019-04-11T03:08:59.347Z,0.56
2019-04-11T03:11:27.579Z,0.46
2019-04-11T03:13:55.309Z,0.47
2019-04-11T03:16:35.416Z,0.38
2019-04-11T03:19:46.768Z,0.29
2019-04-11T03:22:01.535Z,0.27
2019-04-11T03:24:31.063Z,0.27
2019-04-11T03:27:00.403Z,0.26
2019-04-11T03:29:28.645Z,0.13
2019-04-11T03:32:37.039Z,0.00
2019-04-11T03:35:09.504Z,-0.01
2019-04-11T03:37:23.467Z,-0.09
2019-04-11T03:39:48.964Z,0.00
2019-04-11T03:42:07.625Z,0.12
2019-04-11T03:45:20.927Z,0.14
2019-04-11T03:47:40.087Z,0.15
2019-04-11T03:50:06.087Z,0.11
2019-04-11T03:52:28.248Z,0.20
2019-04-11T03:54:56.274Z,0.06
2019-04-11T03:57:25.418Z,-0.05
2019-04-11T03:59:54.346Z,0.02
2019-04-11T04:02:22.472Z,-0.19
2019-04-11T04:04:51.386Z,-0.27
2019-04-11T04:07:19.185Z,-0.40
2019-04-11T04:09:46.341Z,-0.50
2019-04-11T04:12:14.155Z,-0.50
2019-04-11T04:14:53.938Z,-0.46
2019-04-11T04:17:45.551Z,-0.40
2019-04-11T04:20:46.065Z,-0.42
2019-04-11T04:23:20.878Z,-0.41
2019-04-11T04:25:49.374Z,-0.41
2019-04-11T04:28:16.246Z,-0.48
2019-04-11T04:30:44.674Z,-0.48
2019-04-11T04:33:12.967Z,-0.44
2019-04-11T04:35:42.078Z,-0.47
2019-04-11T04:38:09.969Z,-0.48
2019-04-11T04:40:53.880Z,-0.48
2019-04-11T04:43:10.383Z,-0.52
2019-04-11T04:45:57.934Z,-0.58
2019-04-11T04:48:11.143Z,-0.58
2019-04-11T04:50:36.550Z,-0.55
2019-04-11T04:53:03.300Z,-0.54
2019-04-11T04:55:30.317Z,-0.62
2019-04-11T04:57:59.765Z,-0.45
2019-04-11T05:00:28.050Z,-0.60
2019-04-11T05:02:57.136Z,-0.62
2019-04-11T05:05:24.931Z,-0.57
2019-04-11T05:07:53.983Z,-0.49
2019-04-11T05:10:22.164Z,-0.41
2019-04-11T05:12:49.185Z,-0.28
2019-04-11T05:15:16.719Z,-0.27
2019-04-11T05:17:45.805Z,-0.22
2019-04-11T05:20:12.477Z,-0.11
2019-04-11T05:22:39.427Z,0.04
2019-04-11T05:25:06.746Z,0.20
2019-04-11T05:27:33.622Z,0.42
2019-04-11T05:30:00.836Z,0.63
2019-04-11T05:32:29.197Z,0.90
2019-04-11T05:34:56.031Z,1.34
2019-04-11T05:37:22.882Z,1.54
2019-04-11T05:39:50.445Z,1.78
2019-04-11T05:42:19.510Z,2.06
2019-04-11T05:44:45.883Z,2.37
2019-04-11T05:47:18.225Z,2.75
2019-04-11T05:49:52.698Z,2.94
2019-04-11T05:52:19.856Z,3.11
2019-04-11T05:54:54.341Z,3.33
2019-04-11T05:57:24.125Z,3.48
2019-04-11T05:59:53.090Z,3.57
2019-04-11T06:02:41.635Z,3.77
2019-04-11T06:05:32.389Z,3.97
2019-04-11T06:07:59.919Z,4.15
2019-04-11T06:10:50.460Z,4.26
2019-04-11T06:13:36.862Z,4.33
2019-04-11T06:16:04.660Z,4.00
2019-04-11T06:18:52.209Z,3.93
2019-04-11T06:21:26.244Z,3.98
2019-04-11T06:24:01.519Z,3.95
2019-04-11T06:26:48.910Z,3.90
2019-04-11T06:29:24.971Z,4.31
2019-04-11T06:32:05.573Z,4.79
2019-04-11T06:34:35.480Z,4.79
2019-04-11T06:37:39.731Z,5.02
2019-04-11T06:40:12.826Z,5.28
2019-04-11T06:42:49.673Z,5.39
2019-04-11T06:45:35.640Z,5.23
2019-04-11T06:51:04.511Z,5.93
2019-04-11T06:53:37.387Z,6.06
2019-04-11T06:56:20.952Z,6.23
2019-04-11T06:58:57.134Z,6.33
2019-04-11T07:01:25.923Z,6.44
2019-04-11T07:04:25.284Z,6.76
2019-04-11T07:06:53.862Z,7.31
2019-04-11T07:09:39.433Z,8.04
2019-04-11T07:12:30.776Z,7.01
2019-04-11T07:15:02.627Z,7.27
2019-04-11T07:18:18.289Z,8.24
2019-04-11T07:21:03.080Z,10.03
2019-04-11T07:23:49.115Z,10.40
2019-04-11T07:26:25.204Z,11.64
2019-04-11T07:29:26.627Z,12.21
2019-04-11T07:32:09.413Z,11.69
2019-04-11T07:34:56.559Z,11.73
2019-04-11T07:37:47.445Z,12.01
2019-04-11T07:40:37.014Z,12.10
2019-04-11T07:43:13.256Z,13.12
2019-04-11T07:46:06.945Z,13.83
2019-04-11T07:48:36.258Z,14.66
2019-04-11T07:51:23.311Z,17.11
2019-04-11T07:53:50.614Z,17.16
2019-04-11T07:56:37.547Z,15.58
2019-04-11T07:59:07.586Z,13.87
2019-04-11T08:01:47.006Z,11.79
2019-04-11T08:04:45.234Z,10.94
2019-04-11T08:07:32.660Z,10.26
2019-04-11T08:10:05.835Z,11.63
2019-04-11T08:12:33.871Z,12.52
2019-04-11T08:15:19.880Z,14.03
2019-04-11T08:17:46.672Z,13.23
2019-04-11T08:20:41.917Z,14.15
2019-04-11T08:23:09.698Z,15.28
2019-04-11T08:25:55.806Z,16.42
2019-04-11T08:28:22.757Z,18.52
2019-04-11T08:31:13.169Z,18.83
2019-04-11T08:33:40.525Z,19.11
2019-04-11T08:36:27.138Z,17.79
2019-04-11T08:38:53.923Z,17.64
2019-04-11T08:41:35.779Z,17.41
2019-04-11T08:44:11.919Z,19.09
2019-04-11T08:46:42.681Z,21.20
2019-04-11T08:49:15.718Z,24.11
2019-04-11T08:51:43.250Z,22.61
2019-04-11T08:54:26.501Z,22.25
2019-04-11T08:56:53.663Z,21.40
2019-04-11T08:59:44.028Z,21.30
2019-04-11T09:02:13.735Z,21.73
2019-04-11T09:05:04.809Z,21.04
2019-04-11T09:07:31.745Z,19.66
2019-04-11T09:10:16.187Z,19.55
2019-04-11T09:12:50.974Z,19.16
2019-04-11T09:15:35.738Z,19.64
2019-04-11T09:18:09.540Z,20.43
2019-04-11T09:20:47.728Z,22.56
2019-04-11T09:23:17.646Z,24.45
2019-04-11T09:26:20.103Z,22.99
2019-04-11T09:28:55.589Z,22.09
2019-04-11T09:31:43.666Z,22.21
2019-04-11T09:34:42.454Z,23.03
2019-04-11T09:37:22.668Z,25.11
2019-04-11T09:40:15.333Z,26.12
2019-04-11T09:43:01.774Z,25.25
2019-04-11T09:45:43.903Z,20.96
2019-04-11T09:48:31.426Z,20.27
2019-04-11T09:51:15.680Z,23.42
2019-04-11T09:53:45.012Z,25.05
2019-04-11T09:56:31.039Z,26.13
2019-04-11T09:59:00.775Z,27.46
2019-04-11T10:01:47.412Z,27.11
2019-04-11T10:04:14.364Z,22.89
2019-04-11T10:07:01.291Z,17.40
2019-04-11T10:09:40.061Z,16.36
2019-04-11T10:12:25.161Z,15.39
2019-04-11T10:14:51.990Z,14.85
2019-04-11T10:17:44.041Z,13.60
2019-04-11T10:20:13.010Z,11.05
2019-04-11T10:22:49.357Z,12.26
2019-04-11T10:25:19.316Z,13.14
2019-04-11T10:28:17.556Z,14.16
2019-04-11T10:31:02.377Z,14.34
2019-04-11T10:33:37.229Z,13.28
2019-04-11T10:36:18.960Z,12.46
2019-04-11T10:38:46.817Z,11.40
2019-04-11T10:41:33.261Z,12.00
2019-04-11T10:44:03.477Z,11.31
2019-04-11T10:46:58.505Z,11.14
2019-04-11T10:49:42.115Z,11.11
2019-04-11T10:52:15.335Z,11.43
2019-04-11T10:54:45.041Z,11.60
2019-04-11T10:57:26.228Z,11.82
2019-04-11T10:59:52.980Z,12.11
2019-04-11T11:02:31.774Z,12.32
2019-04-11T11:04:59.051Z,12.91
2019-04-11T11:07:28.687Z,12.86
2019-04-11T11:10:00.884Z,13.00
2019-04-11T11:12:35.264Z,13.15
2019-04-11T11:15:11.356Z,12.31
2019-04-11T11:18:25.125Z,12.64
2019-04-11T11:21:02.632Z,12.01
2019-04-11T11:23:45.964Z,10.95
2019-04-11T11:26:22.618Z,9.56
2019-04-11T11:29:12.863Z,9.99
2019-04-11T11:31:47.543Z,10.98
2019-04-11T11:34:21.307Z,11.10
2019-04-11T11:37:07.050Z,11.51
2019-04-11T11:39:52.326Z,11.88
2019-04-11T11:42:37.010Z,11.33
2019-04-11T11:45:11.024Z,11.94
2019-04-11T11:47:57.223Z,11.82
2019-04-11T11:50:24.832Z,11.91
2019-04-11T11:53:13.074Z,12.04
2019-04-11T11:55:39.002Z,11.97
2019-04-11T11:58:28.275Z,12.40
2019-04-11T12:00:57.223Z,12.45
2019-04-11T12:03:46.715Z,13.17
2019-04-11T12:06:16.927Z,13.66
2019-04-11T12:09:07.851Z,13.96
2019-04-11T12:11:35.137Z,14.06
2019-04-11T12:14:14.484Z,12.94
2019-04-11T12:17:01.909Z,12.28
2019-04-11T12:19:45.683Z,12.64
2019-04-11T12:22:02.309Z,12.54
2019-04-11T12:24:34.319Z,11.32
2019-04-11T12:27:43.759Z,10.98
2019-04-11T12:30:15.649Z,11.14
2019-04-11T12:32:48.688Z,11.37
2019-04-11T12:35:24.054Z,11.88
2019-04-11T12:38:10.031Z,12.08
2019-04-11T12:40:54.955Z,12.24
2019-04-11T12:43:21.696Z,12.61
2019-04-11T12:46:10.700Z,12.81
2019-04-11T12:48:41.367Z,12.45
2019-04-11T12:51:27.307Z,12.31
2019-04-11T12:53:54.305Z,12.65
2019-04-11T12:56:43.691Z,12.58
2019-04-11T12:59:17.028Z,12.61
2019-04-11T13:02:08.475Z,11.66
2019-04-11T13:04:37.043Z,11.32
2019-04-11T13:07:32.380Z,11.13
2019-04-11T13:10:19.567Z,11.42
2019-04-11T13:13:11.609Z,11.57
2019-04-11T13:15:47.099Z,11.49
2019-04-11T13:18:42.617Z,11.34
2019-04-11T13:21:29.039Z,10.89
2019-04-11T13:24:14.250Z,10.97
2019-04-11T13:26:59.247Z,10.74
2019-04-11T13:29:48.644Z,10.32
2019-04-11T13:32:37.781Z,10.28
2019-04-11T13:35:10.678Z,10.47
2019-04-11T13:37:56.994Z,10.32
2019-04-11T13:40:58.867Z,10.31
2019-04-11T13:43:30.586Z,10.09
2019-04-11T13:46:25.971Z,10.08
2019-04-11T13:49:02.804Z,10.17
2019-04-11T13:51:55.256Z,10.43
2019-04-11T13:54:37.969Z,10.41
2019-04-11T13:57:22.710Z,10.81
2019-04-11T14:00:07.468Z,10.94
2019-04-11T14:02:50.909Z,11.30
2019-04-11T14:05:36.287Z,11.45
2019-04-11T14:08:03.088Z,11.58
2019-04-11T14:10:31.661Z,11.96
2019-04-11T14:12:58.477Z,10.89
2019-04-11T14:15:25.525Z,10.98
2019-04-11T14:18:29.950Z,11.18
2019-04-11T14:21:03.143Z,10.68
2019-04-11T14:24:04.606Z,10.37
2019-04-11T14:26:36.960Z,10.46
2019-04-11T14:29:26.504Z,10.46
2019-04-11T14:32:01.668Z,10.44
2019-04-11T14:34:48.075Z,10.12
2019-04-11T14:37:23.621Z,10.12
2019-04-11T14:39:52.827Z,9.97
2019-04-11T14:42:32.024Z,9.65
2019-04-11T14:44:58.801Z,9.58
2019-04-11T14:47:42.930Z,9.29
2019-04-11T14:50:11.088Z,9.25
2019-04-11T14:53:03.734Z,9.16
2019-04-11T14:55:31.451Z,9.10
2019-04-11T14:58:17.762Z,9.04
2019-04-11T15:00:44.556Z,9.18
2019-04-11T15:03:29.462Z,9.15
2019-04-11T15:06:21.857Z,9.24
2019-04-11T15:09:06.595Z,9.22
2019-04-11T15:11:50.703Z,9.40
2019-04-11T15:14:28.712Z,9.16
2019-04-11T15:17:09.804Z,9.36
2019-04-11T15:19:36.608Z,9.21
2019-04-11T15:22:21.866Z,9.11
2019-04-11T15:24:49.384Z,9.20
2019-04-11T15:27:45.814Z,9.14
2019-04-11T15:30:16.690Z,9.39
2019-04-11T15:33:00.572Z,9.60
2019-04-11T15:35:27.248Z,9.54
2019-04-11T15:38:31.652Z,9.85
2019-04-11T15:40:58.923Z,9.75
2019-04-11T15:43:43.685Z,9.14
2019-04-11T15:46:14.706Z,9.00
2019-04-11T15:49:02.672Z,9.04
2019-04-11T15:51:58.145Z,9.28
2019-04-11T15:54:44.554Z,8.89
2019-04-11T15:57:21.260Z,8.90
2019-04-11T16:00:07.687Z,8.69
2019-04-11T16:02:54.333Z,8.52
2019-04-11T16:05:49.926Z,8.33
2019-04-11T16:08:43.732Z,8.52
2019-04-11T16:11:29.040Z,8.31
2019-04-11T16:14:27.568Z,8.43
2019-04-11T16:17:13.775Z,8.53
2019-04-11T16:19:51.634Z,8.14
2019-04-11T16:22:36.683Z,8.24
2019-04-11T16:25:07.967Z,8.18
2019-04-11T16:27:57.259Z,8.27
2019-04-11T16:30:24.143Z,8.39
2019-04-11T16:32:59.103Z,8.11
2019-04-11T16:35:33.103Z,8.21
2019-04-11T16:38:01.390Z,8.24
2019-04-11T16:40:53.242Z,8.08
2019-04-11T16:43:24.212Z,8.14
2019-04-11T16:46:06.235Z,8.29
2019-04-11T16:48:32.943Z,8.26
2019-04-11T16:50:59.642Z,7.83
2019-04-11T16:53:26.424Z,8.01
2019-04-11T16:55:53.953Z,7.59
2019-04-11T16:58:20.697Z,7.71
2019-04-11T17:00:52.133Z,7.85
2019-04-11T17:03:17.270Z,7.81
2019-04-11T17:05:55.748Z,7.62
2019-04-11T17:11:06.035Z,7.61
2019-04-11T17:13:32.848Z,7.09
2019-04-11T17:16:00.631Z,7.28
2019-04-11T17:18:27.438Z,7.27
2019-04-11T17:20:54.107Z,7.40
2019-04-11T17:23:20.899Z,7.37
2019-04-11T17:25:52.361Z,7.53
2019-04-11T17:28:16.255Z,7.48
2019-04-11T17:30:43.025Z,7.36
2019-04-11T17:33:09.808Z,7.32
2019-04-11T17:35:36.566Z,7.41
2019-04-11T17:38:06.373Z,7.32
2019-04-11T17:40:51.759Z,7.24
2019-04-11T17:43:18.556Z,7.19
2019-04-11T17:45:45.235Z,7.25
2019-04-11T17:48:12.023Z,7.14
2019-04-11T17:50:38.791Z,7.08
2019-04-11T17:53:05.501Z,7.17
2019-04-11T17:55:32.194Z,7.12
2019-04-11T17:57:58.887Z,6.99
2019-04-11T18:00:29.977Z,6.87
2019-04-11T18:02:57.349Z,6.84
2019-04-11T18:05:24.144Z,6.66
2019-04-11T18:07:50.827Z,6.81
2019-04-11T18:10:17.596Z,6.78
2019-04-11T18:12:44.412Z,6.67
2019-04-11T18:15:11.293Z,6.73
2019-04-11T18:17:38.090Z,6.67
2019-04-11T18:20:06.927Z,6.65
2019-04-11T18:22:33.618Z,6.64
2019-04-11T18:25:00.301Z,6.67
2019-04-11T18:27:27.100Z,6.61
2019-04-11T18:29:53.958Z,6.70
2019-04-11T18:32:20.771Z,6.62
2019-04-11T18:34:48.059Z,6.65
2019-04-11T18:37:14.845Z,6.53
2019-04-11T18:39:41.636Z,6.53
2019-04-11T18:42:08.510Z,6.22
2019-04-11T18:44:35.218Z,6.50
2019-04-11T18:47:01.994Z,6.46
2019-04-11T18:49:28.835Z,6.47
2019-04-11T18:51:55.622Z,6.35
2019-04-11T18:54:22.418Z,6.44
2019-04-11T18:56:48.999Z,6.30
2019-04-11T18:59:15.698Z,6.29
2019-04-11T19:01:42.495Z,6.32
2019-04-11T19:04:11.802Z,6.20
2019-04-11T19:06:37.870Z,6.14
2019-04-11T19:09:08.588Z,6.16
2019-04-11T19:11:34.937Z,6.17
2019-04-11T19:14:01.654Z,6.21
2019-04-11T19:16:28.358Z,6.09
2019-04-11T19:18:55.054Z,6.07
2019-04-11T19:21:21.826Z,6.00
2019-04-11T19:23:48.614Z,6.01
2019-04-11T19:26:15.386Z,6.01
2019-04-11T19:28:42.166Z,6.09
2019-04-11T19:31:08.976Z,6.19
2019-04-11T19:33:35.633Z,6.17
2019-04-11T19:36:02.305Z,6.07
2019-04-11T19:38:31.191Z,5.98
2019-04-11T19:40:57.968Z,6.08
2019-04-11T19:43:24.767Z,5.89
2019-04-11T19:45:51.454Z,6.01
2019-04-11T19:48:18.054Z,6.01
2019-04-11T19:50:44.725Z,5.93
2019-04-11T19:53:11.448Z,5.85
2019-04-11T19:55:56.218Z,5.93
2019-04-11T19:58:24.980Z,5.86
2019-04-11T20:00:53.903Z,5.96
2019-04-11T20:03:21.867Z,5.88
2019-04-11T20:06:08.568Z,5.95
2019-04-11T20:08:35.287Z,5.92
2019-04-11T20:11:02.068Z,5.74
2019-04-11T20:13:31.999Z,5.83
2019-04-11T20:15:57.444Z,5.83
2019-04-11T20:18:24.127Z,5.88
2019-04-11T20:20:52.201Z,5.85
2019-04-11T20:23:19.147Z,5.82
2019-04-11T20:25:49.020Z,5.71
2019-04-11T20:28:14.402Z,5.81
2019-04-11T20:30:41.482Z,5.78
2019-04-11T20:33:08.065Z,5.60
2019-04-11T20:35:34.872Z,5.53
2019-04-11T20:38:01.544Z,5.63
2019-04-11T20:40:28.346Z,5.58
2019-04-11T20:42:55.044Z,5.56
2019-04-11T20:45:22.604Z,5.62
2019-04-11T20:47:49.386Z,5.67
2019-04-11T20:50:16.089Z,5.61
2019-04-11T20:52:42.715Z,5.61
2019-04-11T20:55:09.870Z,5.61
2019-04-11T20:57:36.692Z,5.50
2019-04-11T21:00:25.515Z,5.53
2019-04-11T21:02:52.206Z,5.53
2019-04-11T21:05:19.005Z,5.53
2019-04-11T21:07:45.681Z,5.56
2019-04-11T21:10:12.484Z,5.48
2019-04-11T21:12:39.066Z,5.46
2019-04-11T21:15:06.379Z,5.56
2019-04-11T21:17:33.056Z,5.61
2019-04-11T21:19:59.758Z,5.52
2019-04-11T21:22:26.450Z,5.53
2019-04-11T21:25:12.767Z,5.53
2019-04-11T21:27:39.460Z,5.56
2019-04-11T21:30:06.466Z,5.45
2019-04-11T21:32:33.044Z,5.38
2019-04-11T21:35:01.778Z,5.40
2019-04-11T21:37:30.159Z,5.40
2019-04-11T21:39:57.040Z,5.38
2019-04-11T21:42:23.816Z,5.34
2019-04-11T21:44:50.524Z,5.30
2019-04-11T21:47:17.202Z,5.30
2019-04-11T21:49:44.015Z,5.36
2019-04-11T21:52:12.298Z,5.36
2019-04-11T21:54:39.518Z,5.40
2019-04-11T21:57:06.208Z,5.36
2019-04-11T21:59:32.890Z,5.37
2019-04-11T22:01:59.819Z,5.29
2019-04-11T22:04:27.148Z,5.18
2019-04-11T22:06:55.416Z,5.21
2019-04-11T22:09:22.502Z,5.27
2019-04-11T22:11:49.313Z,5.27
2019-04-11T22:14:16.085Z,5.30
2019-04-11T22:16:45.021Z,5.26
2019-04-11T22:19:13.970Z,5.31
2019-04-11T22:21:40.164Z,5.23
2019-04-11T22:24:06.964Z,5.30
2019-04-11T22:26:33.672Z,5.24
2019-04-11T22:29:00.471Z,5.20
2019-04-11T22:31:27.305Z,5.17
2019-04-11T22:34:22.961Z,5.10
2019-04-11T22:36:49.670Z,5.07
2019-04-11T22:39:16.494Z,5.05
2019-04-11T22:41:43.163Z,5.14
2019-04-11T22:44:09.932Z,5.00
2019-04-11T22:46:37.724Z,5.15
2019-04-11T22:49:08.666Z,5.02
2019-04-11T22:51:33.628Z,4.96
2019-04-11T22:54:00.738Z,4.98
2019-04-11T22:56:27.621Z,5.06
2019-04-11T22:58:54.326Z,4.99
2019-04-11T23:01:40.771Z,4.91
2019-04-11T23:04:07.445Z,4.91
2019-04-11T23:06:34.155Z,4.95
2019-04-11T23:09:00.961Z,4.89
2019-04-11T23:11:27.763Z,4.84
2019-04-11T23:13:54.552Z,4.79
2019-04-11T23:16:21.268Z,4.84
2019-04-11T23:19:07.679Z,4.86
2019-04-11T23:21:34.478Z,4.82
2019-04-11T23:24:11.507Z,4.83
2019-04-11T23:26:29.754Z,4.79
2019-04-11T23:28:56.433Z,4.64
2019-04-11T23:31:23.163Z,4.68
2019-04-11T23:33:51.965Z,4.64
2019-04-11T23:36:18.815Z,4.59
2019-04-11T23:38:47.152Z,4.59
2019-04-11T23:41:13.849Z,4.63
2019-04-11T23:43:40.638Z,4.64
2019-04-11T23:46:07.344Z,4.51
2019-04-11T23:48:34.022Z,4.67
2019-04-11T23:51:00.737Z,4.74
2019-04-11T23:53:29.082Z,4.61
2019-04-11T23:55:59.980Z,4.67
2019-04-11T23:58:24.711Z,4.78
